Time;durP1;ratioP1;P1;durP2;ratioP2;P2;SDS_P1;SDS_P2;PMS_P1;PMS_P2;Temp;Humidity;BMP_temperature;BMP_pressure;BME280_temperature;BME280_humidity;BME280_pressure;Samples;Min_cycle;Max_cycle;Signal;HPM_P1;HPM_P2
2021/12/18 00:00:07;;;;;;;352.27;89.13;;;;;;;2.86;94.40;100063.34;340941;28;1579;-69
2021/12/18 00:00:19;;;;;;;352.08;88.93;;;;;;;2.87;94.70;100065.06;342279;28;2489;-70
2021/12/18 00:00:29;;;;;;;353.27;89.15;;;;;;;2.86;94.91;100059.91;343503;28;1766;-70
2021/12/18 00:00:40;;;;;;;356.90;90.93;;;;;;;2.85;94.39;100061.63;339400;28;1757;-70
2021/12/18 00:00:51;;;;;;;357.17;90.40;;;;;;;2.86;94.48;100063.34;341082;28;1973;-70
2021/12/18 00:01:04;;;;;;;357.48;90.80;;;;;;;2.86;94.16;100065.06;340919;29;1223;-70
2021/12/18 00:01:16;;;;;;;355.17;90.68;;;;;;;2.86;94.60;100063.34;341166;29;976;-70
2021/12/18 00:01:27;;;;;;;355.25;89.97;;;;;;;2.87;94.26;100065.06;340933;29;1988;-70
2021/12/18 00:01:37;;;;;;;355.52;90.90;;;;;;;2.88;94.25;100066.78;339913;29;1724;-70
2021/12/18 00:01:48;;;;;;;355.93;92.57;;;;;;;2.88;94.64;100056.47;340118;29;1699;-70
2021/12/18 00:01:58;;;;;;;354.65;92.75;;;;;;;2.89;94.54;100058.19;341052;29;2018;-70
2021/12/18 00:02:09;;;;;;;354.20;91.27;;;;;;;2.90;94.61;100064.22;340788;29;1956;-70
2021/12/18 00:02:20;;;;;;;354.85;91.28;;;;;;;2.89;94.10;100063.34;338491;29;1615;-71
2021/12/18 00:02:30;;;;;;;354.83;92.80;;;;;;;2.89;94.54;100055.59;339670;29;1850;-71
2021/12/18 00:02:41;;;;;;;355.95;92.90;;;;;;;2.91;94.31;100063.34;340947;29;2159;-71
2021/12/18 00:02:51;;;;;;;357.93;90.97;;;;;;;2.90;94.74;100065.06;341078;29;2038;-71
2021/12/18 00:03:02;;;;;;;358.52;90.97;;;;;;;2.89;94.20;100068.50;342403;28;1401;-71
2021/12/18 00:03:12;;;;;;;357.00;91.47;;;;;;;2.90;94.61;100059.91;341024;29;2085;-71
2021/12/18 00:03:22;;;;;;;355.48;92.28;;;;;;;2.90;94.23;100069.38;340993;29;2182;-69
2021/12/18 00:03:33;;;;;;;354.03;91.07;;;;;;;2.90;94.44;100065.06;339774;28;1328;-68
2021/12/18 00:03:44;;;;;;;354.77;91.68;;;;;;;2.90;94.62;100062.47;339615;29;1776;-68
2021/12/18 00:03:54;;;;;;;353.45;91.63;;;;;;;2.90;94.10;100064.22;340365;29;3273;-70
2021/12/18 00:04:05;;;;;;;353.90;91.73;;;;;;;2.89;94.74;100063.34;340606;28;3534;-69
2021/12/18 00:04:15;;;;;;;352.90;90.63;;;;;;;2.89;94.09;100063.34;339717;29;1363;-69
2021/12/18 00:04:26;;;;;;;351.93;87.83;;;;;;;2.92;94.69;100067.66;337062;29;1791;-68
2021/12/18 00:04:36;;;;;;;352.48;89.18;;;;;;;2.92;94.31;100058.16;338131;29;1495;-68
2021/12/18 00:04:46;;;;;;;355.10;91.30;;;;;;;2.93;94.41;100062.47;339733;28;1205;-68
2021/12/18 00:04:57;;;;;;;357.02;94.07;;;;;;;2.93;94.20;100059.88;339577;29;1527;-68
2021/12/18 00:05:07;;;;;;;357.20;94.00;;;;;;;2.93;94.49;100059.88;341974;28;1337;-68
2021/12/18 00:05:18;;;;;;;355.02;92.30;;;;;;;2.93;94.09;100065.06;342859;28;1931;-68
2021/12/18 00:05:28;;;;;;;354.77;91.77;;;;;;;2.94;94.30;100063.34;339913;29;1340;-69
2021/12/18 00:05:39;;;;;;;355.10;89.93;;;;;;;2.94;94.63;100066.78;341288;28;1672;-69
2021/12/18 00:05:49;;;;;;;355.60;90.00;;;;;;;2.95;95.20;100062.47;342437;28;1167;-69
2021/12/18 00:06:00;;;;;;;354.13;87.70;;;;;;;2.94;94.59;100061.63;342186;28;2291;-68
2021/12/18 00:06:10;;;;;;;353.48;89.85;;;;;;;2.94;94.54;100065.91;341111;29;1835;-68
2021/12/18 00:06:21;;;;;;;353.95;90.32;;;;;;;2.94;94.33;100064.19;340895;29;2095;-68
2021/12/18 00:06:32;;;;;;;355.27;91.05;;;;;;;2.93;94.35;100070.22;337204;29;1075;-69
2021/12/18 00:06:42;;;;;;;355.33;90.17;;;;;;;2.93;94.64;100059.88;338422;29;2138;-68
2021/12/18 00:06:53;;;;;;;354.13;89.83;;;;;;;2.94;94.88;100063.34;340950;29;2104;-68
2021/12/18 00:07:03;;;;;;;354.50;91.53;;;;;;;2.92;94.39;100063.34;341112;28;1221;-68
2021/12/18 00:07:14;;;;;;;355.88;94.45;;;;;;;2.93;94.84;100059.03;343500;28;1552;-68
2021/12/18 00:07:24;;;;;;;358.67;97.30;;;;;;;2.93;94.48;100070.22;339532;29;1793;-68
2021/12/18 00:07:35;;;;;;;357.00;94.47;;;;;;;2.93;94.88;100070.22;336965;29;1803;-69
2021/12/18 00:07:46;;;;;;;357.92;93.72;;;;;;;2.94;94.38;100071.94;338511;29;882;-69
2021/12/18 00:07:56;;;;;;;357.20;94.35;;;;;;;2.92;94.35;100068.50;338434;29;1750;-69
2021/12/18 00:08:07;;;;;;;359.57;97.47;;;;;;;2.91;94.78;100068.50;338381;29;1293;-69
2021/12/18 00:08:17;;;;;;;357.90;95.95;;;;;;;2.92;95.15;100060.75;339782;29;1236;-69
2021/12/18 00:08:27;;;;;;;358.03;93.43;;;;;;;2.92;95.20;100065.91;339534;29;2154;-69
2021/12/18 00:08:38;;;;;;;357.25;92.35;;;;;;;2.89;94.80;100063.34;339757;29;1617;-69
2021/12/18 00:08:49;;;;;;;356.98;91.30;;;;;;;2.90;95.27;100069.38;339887;29;1268;-69
2021/12/18 00:09:00;;;;;;;356.63;91.70;;;;;;;2.89;95.42;100065.94;340960;29;2147;-69
2021/12/18 00:09:11;;;;;;;355.35;90.07;;;;;;;2.89;95.37;100067.66;337905;29;975;-69
2021/12/18 00:09:21;;;;;;;353.90;91.28;;;;;;;2.89;94.92;100068.50;340766;29;2555;-69
2021/12/18 00:09:33;;;;;;;355.45;92.80;;;;;;;2.90;95.32;100064.22;340986;29;1449;-69
2021/12/18 00:09:43;;;;;;;355.08;91.97;;;;;;;2.90;95.32;100069.38;341094;29;1500;-69
2021/12/18 00:09:54;;;;;;;354.98;90.18;;;;;;;2.91;94.94;100068.50;339736;29;1839;-69
2021/12/18 00:10:05;;;;;;;354.80;91.73;;;;;;;2.92;95.08;100068.50;341039;29;869;-69
2021/12/18 00:10:19;;;;;;;355.33;92.33;;;;;;;2.92;94.96;100065.91;339692;28;905;-69
2021/12/18 00:10:30;;;;;;;356.73;92.57;;;;;;;2.92;95.25;100073.69;341019;29;1648;-69
2021/12/18 00:10:40;;;;;;;356.52;91.95;;;;;;;2.92;95.40;100073.69;343583;28;2097;-69
2021/12/18 00:10:52;;;;;;;357.10;90.73;;;;;;;2.92;94.57;100067.66;341084;28;1268;-69
2021/12/18 00:11:03;;;;;;;357.75;90.10;;;;;;;2.90;94.69;100066.78;339685;29;1045;-69
2021/12/18 00:11:14;;;;;;;357.70;89.20;;;;;;;2.90;94.80;100064.22;338414;29;1909;-69
2021/12/18 00:11:24;;;;;;;355.60;88.30;;;;;;;2.90;95.47;100064.22;337101;29;1964;-69
2021/12/18 00:11:35;;;;;;;356.90;89.38;;;;;;;2.89;95.17;100063.34;341104;29;881;-69
2021/12/18 00:11:45;;;;;;;355.00;89.67;;;;;;;2.89;95.23;100067.66;342378;28;2228;-69
2021/12/18 00:11:57;;;;;;;354.45;88.35;;;;;;;2.88;95.02;100069.38;342301;28;1993;-69
2021/12/18 00:12:07;;;;;;;354.85;88.45;;;;;;;2.89;94.97;100068.50;342411;28;1111;-69
2021/12/18 00:12:18;;;;;;;355.75;88.93;;;;;;;2.89;94.80;100065.94;342427;28;873;-69
2021/12/18 00:12:28;;;;;;;353.67;86.45;;;;;;;2.90;95.08;100065.06;342431;28;1620;-69
2021/12/18 00:12:47;;;;;;;351.07;85.13;;;;;;;2.92;94.62;100070.22;343531;28;1981;-69
2021/12/18 00:12:57;;;;;;;353.25;90.15;;;;;;;2.91;94.56;100066.78;340910;29;2005;-69
2021/12/18 00:13:07;;;;;;;356.50;91.47;;;;;;;2.93;95.21;100074.53;338844;29;3590;-69
2021/12/18 00:13:18;;;;;;;356.02;90.90;;;;;;;2.92;94.73;100060.75;340785;29;1408;-69
2021/12/18 00:13:28;;;;;;;355.63;88.73;;;;;;;2.94;95.36;100071.09;341025;29;1186;-69
2021/12/18 00:13:39;;;;;;;354.95;90.38;;;;;;;2.93;95.15;100062.47;340966;29;1736;-69
2021/12/18 00:13:50;;;;;;;355.17;90.77;;;;;;;2.93;94.77;100070.22;341147;29;1012;-69
2021/12/18 00:14:00;;;;;;;355.65;91.20;;;;;;;2.94;94.95;100065.91;339788;29;2164;-69
2021/12/18 00:14:10;;;;;;;356.15;90.10;;;;;;;2.94;94.71;100066.78;339555;29;1495;-70
2021/12/18 00:14:21;;;;;;;357.67;90.87;;;;;;;2.94;94.90;100065.91;337145;29;996;-70
2021/12/18 00:14:31;;;;;;;358.50;93.03;;;;;;;2.93;95.32;100070.22;337125;29;2014;-70
2021/12/18 00:14:41;;;;;;;358.57;94.57;;;;;;;2.94;95.28;100061.63;337095;29;1874;-70
2021/12/18 00:14:52;;;;;;;357.67;94.60;;;;;;;2.92;95.08;100068.50;337166;29;1874;-70
2021/12/18 00:15:03;;;;;;;356.55;92.30;;;;;;;2.93;94.84;100075.41;341101;29;874;-70
2021/12/18 00:15:13;;;;;;;355.73;90.20;;;;;;;2.90;94.81;100070.25;339594;28;1714;-70
2021/12/18 00:15:24;;;;;;;356.05;88.18;;;;;;;2.90;94.91;100065.06;340831;29;2228;-70
2021/12/18 00:15:34;;;;;;;357.93;91.73;;;;;;;2.93;94.67;100072.81;341039;29;959;-70
2021/12/18 00:15:45;;;;;;;358.05;90.85;;;;;;;2.92;94.79;100070.22;338273;29;1727;-70
2021/12/18 00:15:55;;;;;;;358.07;91.53;;;;;;;2.91;95.24;100065.94;341058;29;2071;-70
2021/12/18 00:16:06;;;;;;;358.05;90.07;;;;;;;2.92;94.68;100068.50;339764;29;987;-70
2021/12/18 00:16:16;;;;;;;357.75;90.30;;;;;;;2.93;94.34;100075.41;339451;29;1553;-70
2021/12/18 00:16:27;;;;;;;357.53;89.33;;;;;;;2.94;94.51;100071.09;335843;29;2170;-70
2021/12/18 00:16:37;;;;;;;355.70;89.40;;;;;;;2.93;94.39;100070.22;338517;29;1208;-70
2021/12/18 00:16:48;;;;;;;355.07;90.07;;;;;;;2.92;94.73;100073.69;339698;29;2183;-70
2021/12/18 00:16:58;;;;;;;354.60;89.57;;;;;;;2.93;94.39;100066.78;341052;29;2022;-70
2021/12/18 00:17:08;;;;;;;355.50;89.50;;;;;;;2.92;94.82;100076.25;340974;28;2030;-70
2021/12/18 00:17:19;;;;;;;356.77;90.93;;;;;;;2.92;94.62;100068.50;338533;29;882;-70
2021/12/18 00:17:29;;;;;;;358.00;93.40;;;;;;;2.92;94.53;100068.50;338296;29;2001;-70
2021/12/18 00:17:40;;;;;;;356.57;91.27;;;;;;;2.94;94.77;100071.09;339763;29;2176;-70
2021/12/18 00:17:50;;;;;;;355.48;88.88;;;;;;;2.93;94.76;100075.41;338446;29;1315;-70
2021/12/18 00:18:00;;;;;;;355.47;88.60;;;;;;;2.92;94.86;100067.66;339654;29;1816;-70
2021/12/18 00:18:11;;;;;;;357.52;91.28;;;;;;;2.91;94.83;100065.94;342350;28;1736;-70
2021/12/18 00:18:21;;;;;;;358.97;93.33;;;;;;;2.93;94.95;100072.81;339708;28;1210;-70
2021/12/18 00:18:32;;;;;;;358.25;93.38;;;;;;;2.94;94.33;100077.13;339715;29;1993;-70
2021/12/18 00:18:44;;;;;;;356.42;91.55;;;;;;;2.94;94.19;100068.50;341053;29;1953;-70
2021/12/18 00:18:57;;;;;;;356.80;93.10;;;;;;;2.94;93.88;100066.78;339809;29;1938;-70
2021/12/18 00:19:07;;;;;;;355.67;93.88;;;;;;;2.96;94.18;100074.53;339855;29;913;-70
2021/12/18 00:19:24;;;;;;;354.60;91.73;;;;;;;2.95;94.63;100068.50;339860;29;928;-70
2021/12/18 00:19:34;;;;;;;356.50;91.97;;;;;;;2.96;94.14;100074.53;338359;29;1313;-70
2021/12/18 00:19:45;;;;;;;356.00;91.93;;;;;;;2.95;94.75;100073.66;339640;29;2130;-70
2021/12/18 00:19:55;;;;;;;355.20;91.80;;;;;;;2.95;94.38;100068.50;339768;29;2138;-70
2021/12/18 00:20:06;;;;;;;354.23;92.23;;;;;;;2.94;94.24;100064.19;338463;29;1279;-70
2021/12/18 00:20:18;;;;;;;355.58;93.95;;;;;;;2.95;94.30;100068.50;339606;29;2244;-70
2021/12/18 00:20:29;;;;;;;354.80;90.20;;;;;;;2.94;94.83;100074.53;339751;29;1699;-70
2021/12/18 00:20:40;;;;;;;355.00;89.88;;;;;;;2.96;94.36;100070.22;339601;29;1936;-70
2021/12/18 00:20:50;;;;;;;356.33;93.07;;;;;;;2.95;94.45;100072.81;337265;29;909;-70
2021/12/18 00:21:01;;;;;;;357.90;97.57;;;;;;;2.96;94.80;100072.81;336999;29;1451;-70
2021/12/18 00:21:14;;;;;;;358.40;96.28;;;;;;;2.95;94.07;100073.66;340987;29;2163;-70
2021/12/18 00:21:25;;;;;;;357.67;93.22;;;;;;;2.96;94.52;100075.41;339692;29;2054;-70
2021/12/18 00:21:36;;;;;;;356.40;91.47;;;;;;;2.96;94.88;100075.41;341064;29;949;-70
2021/12/18 00:21:47;;;;;;;355.10;90.82;;;;;;;2.97;94.54;100069.34;338365;29;2105;-70
2021/12/18 00:21:57;;;;;;;355.97;90.70;;;;;;;2.97;94.38;100078.84;339746;29;2080;-70
2021/12/18 00:22:08;;;;;;;357.23;90.70;;;;;;;2.95;94.72;100071.09;338667;29;3303;-70
2021/12/18 00:22:18;;;;;;;357.17;88.57;;;;;;;2.96;94.66;100070.22;339506;29;1639;-70
2021/12/18 00:22:28;;;;;;;356.08;87.00;;;;;;;2.95;94.36;100073.66;341048;29;1947;-70
2021/12/18 00:22:39;;;;;;;356.37;87.87;;;;;;;2.96;94.97;100070.22;339683;29;1314;-70
2021/12/18 00:22:49;;;;;;;358.20;90.33;;;;;;;2.95;94.30;100073.66;339658;29;2154;-70
2021/12/18 00:23:00;;;;;;;359.73;92.22;;;;;;;2.96;94.53;100071.94;342201;28;1798;-70
2021/12/18 00:23:10;;;;;;;360.10;92.70;;;;;;;2.96;94.82;100069.38;342312;28;857;-70
2021/12/18 00:23:20;;;;;;;358.77;93.40;;;;;;;2.95;94.52;100070.22;344968;28;1324;-70
2021/12/18 00:23:31;;;;;;;358.83;94.17;;;;;;;2.94;94.85;100071.94;342311;28;1829;-70
2021/12/18 00:23:41;;;;;;;358.08;93.28;;;;;;;2.95;94.93;100073.66;340998;28;2384;-70
2021/12/18 00:23:52;;;;;;;359.00;93.10;;;;;;;2.95;94.59;100077.97;341019;29;1429;-70
2021/12/18 00:24:04;;;;;;;358.77;92.18;;;;;;;2.96;95.01;100075.41;338368;29;2100;-70
2021/12/18 00:24:14;;;;;;;358.25;93.78;;;;;;;2.95;94.31;100077.97;335836;29;1968;-70
2021/12/18 00:24:25;;;;;;;355.35;93.25;;;;;;;2.95;94.35;100073.66;338363;29;1374;-70
2021/12/18 00:24:35;;;;;;;355.20;91.60;;;;;;;2.97;94.59;100076.25;339790;29;984;-70
2021/12/18 00:24:46;;;;;;;354.73;88.93;;;;;;;2.96;95.04;100074.53;339733;29;2048;-70
2021/12/18 00:24:56;;;;;;;356.03;90.23;;;;;;;2.95;94.74;100076.25;343525;28;2127;-70
2021/12/18 00:25:07;;;;;;;355.42;90.38;;;;;;;2.95;94.81;100068.50;343818;28;982;-70
2021/12/18 00:25:17;;;;;;;356.20;92.33;;;;;;;2.96;94.91;100072.81;340348;28;1553;-70
2021/12/18 00:25:27;;;;;;;357.10;92.07;;;;;;;2.96;94.67;100075.41;340837;29;2036;-70
2021/12/18 00:25:38;;;;;;;359.43;95.17;;;;;;;2.97;94.50;100066.78;341011;29;1165;-70
2021/12/18 00:25:48;;;;;;;360.38;96.57;;;;;;;2.98;94.93;100075.38;339720;29;1914;-70
2021/12/18 00:25:59;;;;;;;360.23;97.57;;;;;;;2.99;95.22;100075.38;338202;29;2085;-70
2021/12/18 00:26:09;;;;;;;359.83;96.05;;;;;;;2.98;94.63;100071.06;337202;29;870;-70
2021/12/18 00:26:20;;;;;;;360.63;96.73;;;;;;;2.98;95.07;100076.25;338381;29;1746;-70
2021/12/18 00:26:30;;;;;;;360.90;96.05;;;;;;;2.98;94.72;100073.66;341003;29;1333;-70
2021/12/18 00:26:41;;;;;;;360.10;95.22;;;;;;;2.99;95.12;100070.22;342304;28;1390;-70
2021/12/18 00:26:51;;;;;;;359.37;93.17;;;;;;;2.99;95.18;100072.81;339821;29;2301;-70
2021/12/18 00:27:01;;;;;;;358.70;92.38;;;;;;;2.98;94.63;100068.50;342273;28;1389;-70
2021/12/18 00:27:12;;;;;;;356.37;90.33;;;;;;;3.02;94.60;100073.66;341096;29;2033;-70
2021/12/18 00:27:22;;;;;;;358.07;89.87;;;;;;;3.02;95.05;100068.50;341175;29;1146;-70
2021/12/18 00:27:33;;;;;;;357.87;89.03;;;;;;;3.03;94.51;100075.38;340996;29;1460;-70
2021/12/18 00:27:43;;;;;;;359.80;90.77;;;;;;;3.04;95.10;100071.91;339840;29;1539;-70
2021/12/18 00:27:53;;;;;;;356.42;91.25;;;;;;;3.03;95.25;100071.06;340963;28;1192;-70
2021/12/18 00:28:04;;;;;;;356.40;94.97;;;;;;;3.02;94.68;100068.50;343536;28;1676;-70
2021/12/18 00:28:14;;;;;;;356.27;94.72;;;;;;;3.04;94.53;100071.91;342287;28;2118;-70
2021/12/18 00:28:24;;;;;;;356.70;94.47;;;;;;;3.02;94.89;100059.00;341130;29;967;-70
2021/12/18 00:28:35;;;;;;;358.38;93.43;;;;;;;3.04;94.48;100064.13;338372;29;1727;-70
2021/12/18 00:28:47;;;;;;;358.77;92.80;;;;;;;3.03;94.46;100070.22;337733;29;2042;-70
2021/12/18 00:28:57;;;;;;;360.95;93.22;;;;;;;3.05;94.75;100068.44;339578;29;1525;-70
2021/12/18 00:29:08;;;;;;;359.17;93.22;;;;;;;3.03;95.06;100067.63;342218;28;1078;-70
2021/12/18 00:29:18;;;;;;;361.07;95.43;;;;;;;3.04;94.67;100069.31;339802;29;2101;-70
2021/12/18 00:29:29;;;;;;;361.42;95.55;;;;;;;3.04;94.51;100066.72;340868;28;2021;-70
2021/12/18 00:29:39;;;;;;;363.37;97.63;;;;;;;3.05;94.98;100071.91;341027;29;798;-70
2021/12/18 00:29:49;;;;;;;362.27;96.45;;;;;;;3.05;95.12;100065.88;342425;28;2090;-70
2021/12/18 00:30:00;;;;;;;361.07;94.13;;;;;;;3.06;94.57;100067.59;341006;29;2052;-70
2021/12/18 00:30:10;;;;;;;360.73;91.75;;;;;;;3.05;94.70;100068.44;342384;28;893;-69
2021/12/18 00:30:22;;;;;;;364.20;94.60;;;;;;;3.07;95.27;100064.13;340987;28;1416;-69
2021/12/18 00:30:33;;;;;;;366.35;96.85;;;;;;;3.06;95.11;100063.28;340886;28;1571;-70
2021/12/18 00:30:43;;;;;;;365.27;96.05;;;;;;;3.06;95.25;100065.00;340907;29;1873;-70
2021/12/18 00:30:54;;;;;;;362.98;96.18;;;;;;;3.06;94.98;100076.19;340999;29;1493;-70
2021/12/18 00:31:04;;;;;;;361.97;96.93;;;;;;;3.06;95.62;100067.59;338248;29;2165;-70
2021/12/18 00:31:15;;;;;;;362.02;96.63;;;;;;;3.08;95.08;100068.44;338257;29;3110;-70
2021/12/18 00:31:25;;;;;;;361.97;96.40;;;;;;;3.07;95.51;100062.41;339567;29;3605;-70
2021/12/18 00:31:35;;;;;;;363.45;99.05;;;;;;;3.08;95.02;100068.44;339727;29;2043;-70
2021/12/18 00:31:46;;;;;;;364.23;100.93;;;;;;;3.08;95.31;100068.44;337574;29;2238;-70
2021/12/18 00:31:57;;;;;;;361.95;95.93;;;;;;;3.08;95.33;100068.44;338533;29;1214;-70
2021/12/18 00:32:08;;;;;;;359.92;94.28;;;;;;;3.09;94.82;100062.41;339662;29;1965;-70
2021/12/18 00:32:18;;;;;;;361.67;94.43;;;;;;;3.10;94.80;100074.47;341892;28;1194;-70
2021/12/18 00:32:28;;;;;;;361.17;94.20;;;;;;;3.08;95.14;100068.44;340841;28;2034;-70
2021/12/18 00:32:39;;;;;;;360.83;93.33;;;;;;;3.09;95.36;100065.00;341173;29;948;-70
2021/12/18 00:32:49;;;;;;;357.77;91.68;;;;;;;3.10;95.10;100066.72;339587;29;1718;-70
2021/12/18 00:33:00;;;;;;;358.23;92.30;;;;;;;3.08;95.04;100058.97;339699;29;2123;-70
2021/12/18 00:33:11;;;;;;;358.23;93.43;;;;;;;3.08;94.45;100066.72;339750;29;933;-70
2021/12/18 00:33:21;;;;;;;358.70;92.93;;;;;;;3.09;94.75;100059.81;340800;29;1751;-70
2021/12/18 00:33:32;;;;;;;359.10;91.80;;;;;;;3.09;94.43;100067.56;340956;29;1917;-70
2021/12/18 00:33:42;;;;;;;360.10;91.25;;;;;;;3.09;94.88;100059.81;342326;28;1245;-70
2021/12/18 00:33:52;;;;;;;361.60;92.05;;;;;;;3.10;94.82;100072.75;341173;29;1117;-70
2021/12/18 00:34:03;;;;;;;362.70;93.97;;;;;;;3.11;94.98;100063.25;339663;29;1951;-70
2021/12/18 00:34:13;;;;;;;360.27;91.53;;;;;;;3.12;94.61;100070.16;339730;29;1976;-70
2021/12/18 00:34:24;;;;;;;357.50;90.67;;;;;;;3.11;94.55;100060.69;341156;29;1015;-70
2021/12/18 00:34:34;;;;;;;356.10;91.25;;;;;;;3.12;95.13;100059.81;342338;28;1325;-70
2021/12/18 00:34:44;;;;;;;356.67;94.47;;;;;;;3.12;95.20;100062.38;341150;29;1397;-70
2021/12/18 00:34:55;;;;;;;357.90;95.57;;;;;;;3.13;94.65;100066.69;338442;29;1114;-70
2021/12/18 00:35:05;;;;;;;357.88;94.40;;;;;;;3.11;94.77;100068.44;338426;29;1998;-70
2021/12/18 00:35:17;;;;;;;357.77;93.22;;;;;;;3.11;94.48;100074.47;339660;29;1769;-70
2021/12/18 00:35:28;;;;;;;358.02;92.90;;;;;;;3.12;95.02;100070.16;339699;29;1195;-70
2021/12/18 00:35:39;;;;;;;359.10;93.93;;;;;;;3.12;95.13;100060.66;339749;29;1190;-70
2021/12/18 00:35:49;;;;;;;359.02;93.47;;;;;;;3.12;95.22;100076.19;339696;29;1745;-70
2021/12/18 00:36:00;;;;;;;357.63;93.32;;;;;;;3.11;95.10;100069.28;338042;29;1584;-70
2021/12/18 00:36:10;;;;;;;358.10;94.27;;;;;;;3.11;94.64;100068.44;339755;29;1427;-70
2021/12/18 00:36:20;;;;;;;361.45;96.85;;;;;;;3.10;94.41;100061.53;340971;29;2090;-70
2021/12/18 00:36:31;;;;;;;362.60;96.70;;;;;;;3.10;95.34;100069.28;342394;28;1832;-70
2021/12/18 00:36:41;;;;;;;367.13;95.53;;;;;;;3.10;95.30;100066.72;339696;28;1138;-70
2021/12/18 00:36:52;;;;;;;363.80;92.13;;;;;;;3.10;94.79;100066.72;339826;29;1983;-70
2021/12/18 00:37:02;;;;;;;361.55;92.20;;;;;;;3.09;95.27;100071.03;342255;28;2012;-70
2021/12/18 00:37:13;;;;;;;358.17;90.20;;;;;;;3.09;95.10;100070.16;341080;29;971;-70
2021/12/18 00:37:23;;;;;;;356.42;90.03;;;;;;;3.08;95.25;100066.72;343769;28;2211;-70
2021/12/18 00:37:33;;;;;;;356.00;90.63;;;;;;;3.09;94.87;100070.16;340780;28;1836;-70
2021/12/18 00:37:44;;;;;;;357.83;90.68;;;;;;;3.08;95.25;100068.44;339757;29;1774;-70
2021/12/18 00:37:55;;;;;;;361.83;93.95;;;;;;;3.08;94.94;100064.13;342404;28;1038;-70
2021/12/18 00:38:06;;;;;;;362.50;95.90;;;;;;;3.07;95.20;100066.72;342189;28;1764;-70
2021/12/18 00:38:16;;;;;;;363.10;97.20;;;;;;;3.07;94.75;100061.53;343653;28;1953;-70
2021/12/18 00:38:30;;;;;;;362.50;95.37;;;;;;;3.04;95.17;100062.41;343754;28;907;-70
2021/12/18 00:38:41;;;;;;;359.38;91.75;;;;;;;3.07;94.66;100066.72;338516;29;956;-70
2021/12/18 00:38:52;;;;;;;357.95;90.55;;;;;;;3.05;94.24;100069.31;340911;29;2086;-70
2021/12/18 00:39:02;;;;;;;359.30;92.97;;;;;;;3.05;94.74;100063.28;340123;29;1752;-70
2021/12/18 00:39:13;;;;;;;357.02;90.72;;;;;;;3.04;94.98;100067.59;341091;29;967;-70
2021/12/18 00:39:23;;;;;;;356.67;90.17;;;;;;;3.05;94.57;100068.44;340938;29;1625;-70
2021/12/18 00:39:38;;;;;;;355.67;89.77;;;;;;;3.04;94.24;100069.31;341107;29;1747;-70
2021/12/18 00:39:56;;;;;;;356.50;90.57;;;;;;;3.04;94.04;100061.56;339741;29;1668;-70
2021/12/18 00:40:11;;;;;;;356.58;89.28;;;;;;;3.04;94.71;100066.72;340998;29;2012;-70
2021/12/18 00:40:25;;;;;;;357.33;92.05;;;;;;;3.05;94.04;100063.28;341174;28;3467;-70
2021/12/18 00:40:48;;;;;;;359.85;95.78;;;;;;;3.06;94.51;100070.16;338306;29;2058;-70
2021/12/18 00:41:34;;;;;;;357.15;90.38;;;;;;;3.09;94.86;100065.00;338408;29;965;-70
2021/12/18 00:42:19;;;;;;;355.13;88.50;;;;;;;3.10;94.34;100071.88;339880;29;965;-70
2021/12/18 00:43:21;;;;;;;357.27;88.05;;;;;;;3.10;94.37;100071.88;339723;29;1299;-70
2021/12/18 00:43:30;;;;;;;362.02;94.95;;;;;;;3.13;93.81;100072.72;338397;29;1882;-69
2021/12/18 00:44:12;;;;;;;356.98;90.50;;;;;;;3.13;94.15;100071.88;340927;29;1868;-69
2021/12/18 00:44:23;;;;;;;357.40;91.30;;;;;;;3.15;94.38;100072.72;340945;29;1737;-69
2021/12/18 00:44:33;;;;;;;358.70;92.50;;;;;;;3.14;93.78;100063.25;339614;29;1829;-69
2021/12/18 00:44:43;;;;;;;361.17;93.33;;;;;;;3.15;94.12;100067.56;339666;29;1308;-69
2021/12/18 00:44:54;;;;;;;364.13;94.70;;;;;;;3.13;93.89;100074.47;340902;29;2059;-69
2021/12/18 00:45:12;;;;;;;363.93;94.20;;;;;;;3.12;94.11;100073.59;342240;28;1427;-69
2021/12/18 00:45:23;;;;;;;362.15;94.05;;;;;;;3.11;94.26;100073.59;342236;28;1480;-69
2021/12/18 00:45:33;;;;;;;360.67;94.18;;;;;;;3.09;94.15;100068.44;339537;29;2009;-69
2021/12/18 00:45:43;;;;;;;360.27;93.17;;;;;;;3.09;94.46;100070.16;338346;29;1259;-69
2021/12/18 00:45:54;;;;;;;359.90;92.17;;;;;;;3.09;93.99;100071.03;342364;28;2080;-69
2021/12/18 00:46:04;;;;;;;358.63;90.68;;;;;;;3.10;94.15;100071.88;340915;28;1732;-69
2021/12/18 00:46:15;;;;;;;357.75;92.15;;;;;;;3.09;94.69;100070.16;342447;28;949;-69
2021/12/18 00:46:25;;;;;;;355.37;90.07;;;;;;;3.07;94.39;100074.47;340954;29;1749;-69
2021/12/18 00:46:37;;;;;;;358.08;90.38;;;;;;;3.07;94.49;100071.88;341677;28;2082;-69
2021/12/18 00:46:48;;;;;;;358.95;91.88;;;;;;;3.05;94.28;100074.47;341015;29;1687;-69
2021/12/18 00:46:58;;;;;;;359.83;94.93;;;;;;;3.05;94.58;100065.88;339782;29;877;-69
2021/12/18 00:47:08;;;;;;;356.98;92.78;;;;;;;3.06;94.21;100065.00;339626;29;1849;-69
2021/12/18 00:47:19;;;;;;;357.80;91.10;;;;;;;3.06;94.30;100070.16;338733;28;2093;-69
2021/12/18 00:47:29;;;;;;;357.25;90.07;;;;;;;3.06;94.29;100075.34;342224;28;1224;-69
2021/12/18 00:47:40;;;;;;;360.60;92.97;;;;;;;3.04;94.34;100074.47;342427;28;991;-69
2021/12/18 00:47:50;;;;;;;360.10;92.55;;;;;;;3.06;94.28;100065.00;338384;29;2075;-69
2021/12/18 00:48:01;;;;;;;359.93;92.40;;;;;;;3.05;94.36;100071.03;337208;29;878;-69
2021/12/18 00:48:11;;;;;;;357.40;92.20;;;;;;;3.05;94.96;100068.44;335711;29;2413;-69
2021/12/18 00:48:21;;;;;;;357.20;92.53;;;;;;;3.06;95.02;100075.34;339124;29;2132;-69
2021/12/18 00:48:32;;;;;;;361.67;95.18;;;;;;;3.07;94.38;100072.75;341022;29;1998;-69
2021/12/18 00:48:42;;;;;;;364.10;94.63;;;;;;;3.07;94.66;100071.88;342242;28;1212;-69
2021/12/18 00:48:53;;;;;;;364.20;94.70;;;;;;;3.07;94.68;100071.88;342350;28;2010;-69
2021/12/18 00:49:04;;;;;;;360.77;91.57;;;;;;;3.05;94.48;100076.19;339606;28;2042;-69
2021/12/18 00:49:16;;;;;;;360.40;91.04;;;;;;;3.06;94.09;100075.34;340895;29;1319;-69
2021/12/18 00:49:27;;;;;;;359.45;90.32;;;;;;;3.04;94.48;100069.31;338939;29;3437;-69
2021/12/18 00:49:37;;;;;;;357.07;89.37;;;;;;;3.05;94.39;100071.91;340879;29;1321;-69
2021/12/18 00:49:47;;;;;;;356.15;87.80;;;;;;;3.06;94.47;100065.00;338327;29;2036;-69
2021/12/18 00:49:58;;;;;;;357.33;88.77;;;;;;;3.06;94.34;100070.16;339703;28;1314;-69
2021/12/18 00:50:11;;;;;;;358.05;90.45;;;;;;;3.05;94.47;100069.31;339694;29;1508;-69
2021/12/18 00:50:24;;;;;;;357.50;90.40;;;;;;;3.04;94.18;100077.06;339666;29;1690;-69
2021/12/18 00:50:35;;;;;;;357.33;88.82;;;;;;;3.04;94.42;100077.94;339562;28;1918;-69
2021/12/18 00:50:45;;;;;;;357.07;88.30;;;;;;;3.05;94.51;100071.91;341062;28;1189;-69
2021/12/18 00:50:56;;;;;;;358.00;89.10;;;;;;;3.06;94.08;100072.75;341076;29;952;-69
2021/12/18 00:51:06;;;;;;;357.67;89.90;;;;;;;3.04;94.65;100070.16;340938;29;2117;-69
2021/12/18 00:51:16;;;;;;;358.95;92.38;;;;;;;3.05;94.19;100073.63;340974;29;1994;-69
2021/12/18 00:51:27;;;;;;;358.77;91.37;;;;;;;3.06;93.86;100067.59;341027;29;891;-69
2021/12/18 00:51:37;;;;;;;360.25;91.22;;;;;;;3.07;94.04;100066.72;340867;29;1982;-69
2021/12/18 00:51:48;;;;;;;358.00;90.63;;;;;;;3.07;94.49;100075.34;340966;29;2355;-69
2021/12/18 00:51:58;;;;;;;358.58;90.13;;;;;;;3.09;94.41;100075.31;342391;28;891;-69
2021/12/18 00:52:09;;;;;;;359.63;89.10;;;;;;;3.09;93.99;100068.44;343600;28;2038;-69
2021/12/18 00:52:19;;;;;;;359.67;89.28;;;;;;;3.10;94.59;100071.88;341033;29;1938;-69
2021/12/18 00:52:29;;;;;;;359.90;91.00;;;;;;;3.12;94.55;100075.31;340934;29;1369;-69
2021/12/18 00:52:40;;;;;;;358.83;93.32;;;;;;;3.11;94.25;100069.28;340980;29;1916;-69
2021/12/18 00:52:50;;;;;;;359.60;94.07;;;;;;;3.11;94.20;100068.44;339641;29;2015;-69
2021/12/18 00:53:01;;;;;;;359.02;94.15;;;;;;;3.12;94.03;100070.16;342198;28;1572;-69